Seafari — WDJ2924 — position and weather

sailwx.info

Track history (hours):
 
Tides and Currents Weather Stations Pressure Air Temp Water Temp Dewpoint Dewpoint Depression Visibility Wind Speed Wind Dir Waves Ship Positions

Seafari

Owner: Seafari Expeditions Corp, New York, NY. More information available from US FCC via Universal Licensing System and Coast Guard Vessel Documentation Center.

Last reported at 2018-Jun-19 12:18 UTC. Time now 2018-Jun-22 11:12 UTC.
Position N 43°38' W 070°05'.

Length 31 m.

Type: Pleasure craft. MMSI: 367763020.

Date/timePositionNaut miles runAvg speedWind from/ knotsBaromVisibWave heightAir tempDewpointWater temp
2018-Jun-19 12:18N 43°38' W 070°05'611.9
2018-Jun-19 11:49N 43°38' W 070°13'2 3.6
2018-Jun-19 11:14N 43°39' W 070°15'0 0.0
2018-Jun-19 10:49N 43°39' W 070°15'0 0.0
2018-Jun-19 10:22N 43°39' W 070°15'0 0.0
2018-Jun-19 08:55N 43°39' W 070°15'0 0.0
2018-Jun-19 08:07N 43°39' W 070°15'0 0.0
2018-Jun-19 07:37N 43°39' W 070°15'0 0.0
2018-Jun-19 07:22N 43°39' W 070°15'0 0.0
2018-Jun-19 06:55N 43°39' W 070°15'0 0.0
2018-Jun-19 06:13N 43°39' W 070°15'0 0.0
2018-Jun-19 05:43N 43°39' W 070°15'0 0.0
2018-Jun-19 05:25N 43°39' W 070°15'0 0.0
2018-Jun-19 04:55N 43°39' W 070°15'0 0.0
2018-Jun-19 04:01N 43°39' W 070°15'0 0.0
2018-Jun-19 03:49N 43°39' W 070°15'0 0.0
2018-Jun-19 03:25N 43°39' W 070°15'0 0.0
2018-Jun-19 03:01N 43°39' W 070°15'0 0.0
2018-Jun-18 22:21N 43°39' W 070°15'0 0.0
2018-Jun-18 22:00N 43°39' W 070°15'0 0.0
2018-Jun-18 21:17N 43°39' W 070°15'1 4.6
2018-Jun-18 21:00N 43°39' W 070°13'5611.3
2018-Jun-18 16:06N 42°45' W 070°30'211.8
2018-Jun-18 15:58N 42°43' W 070°30'511.4
2018-Jun-18 15:30N 42°38' W 070°33'612.0
2018-Jun-18 15:00N 42°32' W 070°33'611.8
2018-Jun-18 14:30N 42°26' W 070°32'111 2.5
2018-Jun-16 17:30N 41°13' W 072°23'610.9
2018-Jun-16 16:59N 41°12' W 072°31'71 3.7
2018-Jun-15 21:31N 40°45' W 073°58'0 9.4
2018-Jun-15 21:28N 40°44' W 073°58'4 9.0
2018-Jun-15 21:01N 40°41' W 074°02'5610.3
2018-Jun-15 15:33N 39°45' W 074°01'111.0
2018-Jun-15 15:30N 39°44' W 074°01'611.1
2018-Jun-15 15:00N 39°39' W 074°03'  
2018-Jun-12 21:34N 36°49' W 076°17'1 8.3
2018-Jun-12 21:29N 36°48' W 076°17'2 4.4
2018-Jun-12 21:00N 36°46' W 076°18'115 2.3
2018-Jun-10 19:14N 34°53' W 076°41'2 7.9
2018-Jun-10 18:59N 34°51' W 076°41'4 7.7
2018-Jun-10 18:30N 34°47' W 076°41'5 9.5
2018-Jun-10 18:00N 34°42' W 076°41'  
Track history (hours):
 
Tides and Currents Weather Stations Pressure Air Temp Water Temp Dewpoint Dewpoint Depression Visibility Wind Speed Wind Dir Waves Ship Positions

Seafari

Owner: Seafari Expeditions Corp, New York, NY. More information available from US FCC via Universal Licensing System and Coast Guard Vessel Documentation Center.

Last reported at 2018-Jun-19 12:18 UTC. Time now 2018-Jun-22 11:12 UTC.
Position N 43°38' W 070°05'.

Length 31 m.

Type: Pleasure craft. MMSI: 367763020.

Date/timePositionNaut miles runAvg speedWind from/ knotsBaromVisibWave heightAir tempDewpointWater temp
2018-Jun-19 12:18N 43°38' W 070°05'611.9
2018-Jun-19 11:49N 43°38' W 070°13'2 3.6
2018-Jun-19 11:14N 43°39' W 070°15'0 0.0
2018-Jun-19 10:49N 43°39' W 070°15'0 0.0
2018-Jun-19 10:22N 43°39' W 070°15'0 0.0
2018-Jun-19 08:55N 43°39' W 070°15'0 0.0
2018-Jun-19 08:07N 43°39' W 070°15'0 0.0
2018-Jun-19 07:37N 43°39' W 070°15'0 0.0
2018-Jun-19 07:22N 43°39' W 070°15'0 0.0
2018-Jun-19 06:55N 43°39' W 070°15'0 0.0
2018-Jun-19 06:13N 43°39' W 070°15'0 0.0
2018-Jun-19 05:43N 43°39' W 070°15'0 0.0
2018-Jun-19 05:25N 43°39' W 070°15'0 0.0
2018-Jun-19 04:55N 43°39' W 070°15'0 0.0
2018-Jun-19 04:01N 43°39' W 070°15'0 0.0
2018-Jun-19 03:49N 43°39' W 070°15'0 0.0
2018-Jun-19 03:25N 43°39' W 070°15'0 0.0
2018-Jun-19 03:01N 43°39' W 070°15'0 0.0
2018-Jun-18 22:21N 43°39' W 070°15'0 0.0
2018-Jun-18 22:00N 43°39' W 070°15'0 0.0
2018-Jun-18 21:17N 43°39' W 070°15'1 4.6
2018-Jun-18 21:00N 43°39' W 070°13'5611.3
2018-Jun-18 16:06N 42°45' W 070°30'211.8
2018-Jun-18 15:58N 42°43' W 070°30'511.4
2018-Jun-18 15:30N 42°38' W 070°33'612.0
2018-Jun-18 15:00N 42°32' W 070°33'611.8
2018-Jun-18 14:30N 42°26' W 070°32'111 2.5
2018-Jun-16 17:30N 41°13' W 072°23'610.9
2018-Jun-16 16:59N 41°12' W 072°31'71 3.7
2018-Jun-15 21:31N 40°45' W 073°58'0 9.4
2018-Jun-15 21:28N 40°44' W 073°58'4 9.0
2018-Jun-15 21:01N 40°41' W 074°02'5610.3
2018-Jun-15 15:33N 39°45' W 074°01'111.0
2018-Jun-15 15:30N 39°44' W 074°01'611.1
2018-Jun-15 15:00N 39°39' W 074°03'  
2018-Jun-12 21:34N 36°49' W 076°17'1 8.3
2018-Jun-12 21:29N 36°48' W 076°17'2 4.4
2018-Jun-12 21:00N 36°46' W 076°18'115 2.3
2018-Jun-10 19:14N 34°53' W 076°41'2 7.9
2018-Jun-10 18:59N 34°51' W 076°41'4 7.7
2018-Jun-10 18:30N 34°47' W 076°41'5 9.5
2018-Jun-10 18:00N 34°42' W 076°41'  

Dump ship's entire track history